<?xml version="1.0" encoding="UTF-8" standalone="no" ?>
<gpx xmlns="http://www.topografix.com/GPX/1/1" xmlns:xsi="http://www.w3.org/2001/XMLSchema-instance" xsi:schemaLocation="http://www.topografix.com/GPX/1/1 http://www.topografix.com/GPX/1/1/gpx.xsd" version="1.1" creator="VisuGPX - https://www.visugpx.com">
  <metadata>
    <name>17kms_Pornichet</name>
    <desc><![CDATA[Circuit sympa le long des côtes et dans la campagne de Pornichet.
Pas de difficulté particulière.]]></desc>
  </metadata>
  <trk>
    <name><![CDATA[Pornichet - 6827 - UtagawaVTT.com]]></name>
    <trkseg>
      <trkpt lat="47.25987" lon="-2.3391">
        <ele>4</ele>
        <time>2007-05-21T06:00:00Z</time>
      </trkpt>
      <trkpt lat="47.25958" lon="-2.33925">
        <ele>4</ele>
        <time>2007-05-21T06:00:12Z</time>
      </trkpt>
      <trkpt lat="47.25947" lon="-2.3392">
        <ele>4</ele>
        <time>2007-05-21T06:00:17Z</time>
      </trkpt>
      <trkpt lat="47.25945" lon="-2.33902">
        <ele>4</ele>
        <time>2007-05-21T06:00:22Z</time>
      </trkpt>
      <trkpt lat="47.25898" lon="-2.33877">
        <ele>4</ele>
        <time>2007-05-21T06:00:41Z</time>
      </trkpt>
      <trkpt lat="47.25845" lon="-2.33865">
        <ele>3</ele>
        <time>2007-05-21T06:01:03Z</time>
      </trkpt>
      <trkpt lat="47.25797" lon="-2.33844">
        <ele>3</ele>
        <time>2007-05-21T06:01:23Z</time>
      </trkpt>
      <trkpt lat="47.2575" lon="-2.33821">
        <ele>4</ele>
        <time>2007-05-21T06:01:43Z</time>
      </trkpt>
      <trkpt lat="47.257" lon="-2.338">
        <ele>4</ele>
        <time>2007-05-21T06:02:03Z</time>
      </trkpt>
      <trkpt lat="47.25671" lon="-2.33789">
        <ele>5</ele>
        <time>2007-05-21T06:02:15Z</time>
      </trkpt>
      <trkpt lat="47.25617" lon="-2.33765">
        <ele>6</ele>
        <time>2007-05-21T06:02:38Z</time>
      </trkpt>
      <trkpt lat="47.256" lon="-2.33759">
        <ele>7</ele>
        <time>2007-05-21T06:02:45Z</time>
      </trkpt>
      <trkpt lat="47.25589" lon="-2.33758">
        <ele>7</ele>
        <time>2007-05-21T06:02:50Z</time>
      </trkpt>
      <trkpt lat="47.2557" lon="-2.33758">
        <ele>8</ele>
        <time>2007-05-21T06:02:57Z</time>
      </trkpt>
      <trkpt lat="47.25524" lon="-2.3376">
        <ele>8</ele>
        <time>2007-05-21T06:03:15Z</time>
      </trkpt>
      <trkpt lat="47.25499" lon="-2.33761">
        <ele>7</ele>
        <time>2007-05-21T06:03:26Z</time>
      </trkpt>
      <trkpt lat="47.25466" lon="-2.3375">
        <ele>7</ele>
        <time>2007-05-21T06:03:39Z</time>
      </trkpt>
      <trkpt lat="47.25448" lon="-2.33735">
        <ele>7</ele>
        <time>2007-05-21T06:03:47Z</time>
      </trkpt>
      <trkpt lat="47.25436" lon="-2.33716">
        <ele>6</ele>
        <time>2007-05-21T06:03:55Z</time>
      </trkpt>
      <trkpt lat="47.25425" lon="-2.33695">
        <ele>6</ele>
        <time>2007-05-21T06:04:02Z</time>
      </trkpt>
      <trkpt lat="47.25396" lon="-2.33638">
        <ele>7</ele>
        <time>2007-05-21T06:04:21Z</time>
      </trkpt>
      <trkpt lat="47.2536" lon="-2.33568">
        <ele>8</ele>
        <time>2007-05-21T06:04:45Z</time>
      </trkpt>
      <trkpt lat="47.25333" lon="-2.33516">
        <ele>8</ele>
        <time>2007-05-21T06:05:03Z</time>
      </trkpt>
      <trkpt lat="47.253" lon="-2.33452">
        <ele>8</ele>
        <time>2007-05-21T06:05:24Z</time>
      </trkpt>
      <trkpt lat="47.25264" lon="-2.33382">
        <ele>8</ele>
        <time>2007-05-21T06:05:48Z</time>
      </trkpt>
      <trkpt lat="47.25253" lon="-2.33362">
        <ele>7</ele>
        <time>2007-05-21T06:05:55Z</time>
      </trkpt>
      <trkpt lat="47.25219" lon="-2.33298">
        <ele>7</ele>
        <time>2007-05-21T06:06:18Z</time>
      </trkpt>
      <trkpt lat="47.25188" lon="-2.33236">
        <ele>8</ele>
        <time>2007-05-21T06:06:39Z</time>
      </trkpt>
      <trkpt lat="47.25162" lon="-2.33188">
        <ele>7</ele>
        <time>2007-05-21T06:06:55Z</time>
      </trkpt>
      <trkpt lat="47.25142" lon="-2.33151">
        <ele>8</ele>
        <time>2007-05-21T06:07:08Z</time>
      </trkpt>
      <trkpt lat="47.25113" lon="-2.33091">
        <ele>8</ele>
        <time>2007-05-21T06:07:28Z</time>
      </trkpt>
      <trkpt lat="47.25102" lon="-2.33071">
        <ele>9</ele>
        <time>2007-05-21T06:07:35Z</time>
      </trkpt>
      <trkpt lat="47.25072" lon="-2.33016">
        <ele>9</ele>
        <time>2007-05-21T06:07:54Z</time>
      </trkpt>
      <trkpt lat="47.25053" lon="-2.32968">
        <ele>9</ele>
        <time>2007-05-21T06:08:09Z</time>
      </trkpt>
      <trkpt lat="47.25047" lon="-2.32953">
        <ele>8</ele>
        <time>2007-05-21T06:08:14Z</time>
      </trkpt>
      <trkpt lat="47.25041" lon="-2.32939">
        <ele>9</ele>
        <time>2007-05-21T06:08:18Z</time>
      </trkpt>
      <trkpt lat="47.25018" lon="-2.32875">
        <ele>9</ele>
        <time>2007-05-21T06:08:38Z</time>
      </trkpt>
      <trkpt lat="47.24999" lon="-2.32824">
        <ele>10</ele>
        <time>2007-05-21T06:08:54Z</time>
      </trkpt>
      <trkpt lat="47.24976" lon="-2.32758">
        <ele>10</ele>
        <time>2007-05-21T06:09:14Z</time>
      </trkpt>
      <trkpt lat="47.24969" lon="-2.32742">
        <ele>9</ele>
        <time>2007-05-21T06:09:19Z</time>
      </trkpt>
      <trkpt lat="47.24954" lon="-2.327">
        <ele>10</ele>
        <time>2007-05-21T06:09:32Z</time>
      </trkpt>
      <trkpt lat="47.24923" lon="-2.32618">
        <ele>10</ele>
        <time>2007-05-21T06:09:57Z</time>
      </trkpt>
      <trkpt lat="47.24893" lon="-2.32536">
        <ele>10</ele>
        <time>2007-05-21T06:10:23Z</time>
      </trkpt>
      <trkpt lat="47.24868" lon="-2.32471">
        <ele>10</ele>
        <time>2007-05-21T06:10:43Z</time>
      </trkpt>
      <trkpt lat="47.24846" lon="-2.32416">
        <ele>11</ele>
        <time>2007-05-21T06:11:00Z</time>
      </trkpt>
      <trkpt lat="47.24828" lon="-2.3238">
        <ele>10</ele>
        <time>2007-05-21T06:11:13Z</time>
      </trkpt>
      <trkpt lat="47.24797" lon="-2.32323">
        <ele>10</ele>
        <time>2007-05-21T06:11:33Z</time>
      </trkpt>
      <trkpt lat="47.24762" lon="-2.32262">
        <ele>10</ele>
        <time>2007-05-21T06:11:54Z</time>
      </trkpt>
      <trkpt lat="47.24728" lon="-2.32196">
        <ele>11</ele>
        <time>2007-05-21T06:12:17Z</time>
      </trkpt>
      <trkpt lat="47.24691" lon="-2.32126">
        <ele>12</ele>
        <time>2007-05-21T06:12:41Z</time>
      </trkpt>
      <trkpt lat="47.2466" lon="-2.32071">
        <ele>12</ele>
        <time>2007-05-21T06:13:00Z</time>
      </trkpt>
      <trkpt lat="47.2464" lon="-2.32033">
        <ele>13</ele>
        <time>2007-05-21T06:13:13Z</time>
      </trkpt>
      <trkpt lat="47.24626" lon="-2.32008">
        <ele>14</ele>
        <time>2007-05-21T06:13:22Z</time>
      </trkpt>
      <trkpt lat="47.24614" lon="-2.31985">
        <ele>15</ele>
        <time>2007-05-21T06:13:30Z</time>
      </trkpt>
      <trkpt lat="47.24599" lon="-2.31956">
        <ele>16</ele>
        <time>2007-05-21T06:13:40Z</time>
      </trkpt>
      <trkpt lat="47.24587" lon="-2.31933">
        <ele>17</ele>
        <time>2007-05-21T06:13:48Z</time>
      </trkpt>
      <trkpt lat="47.24565" lon="-2.31888">
        <ele>18</ele>
        <time>2007-05-21T06:14:03Z</time>
      </trkpt>
      <trkpt lat="47.24535" lon="-2.31834">
        <ele>18</ele>
        <time>2007-05-21T06:14:21Z</time>
      </trkpt>
      <trkpt lat="47.24529" lon="-2.31823">
        <ele>19</ele>
        <time>2007-05-21T06:14:25Z</time>
      </trkpt>
      <trkpt lat="47.24501" lon="-2.31769">
        <ele>20</ele>
        <time>2007-05-21T06:14:44Z</time>
      </trkpt>
      <trkpt lat="47.24486" lon="-2.31742">
        <ele>21</ele>
        <time>2007-05-21T06:14:54Z</time>
      </trkpt>
      <trkpt lat="47.24456" lon="-2.31686">
        <ele>21</ele>
        <time>2007-05-21T06:15:13Z</time>
      </trkpt>
      <trkpt lat="47.24446" lon="-2.31665">
        <ele>20</ele>
        <time>2007-05-21T06:15:19Z</time>
      </trkpt>
      <trkpt lat="47.24429" lon="-2.31632">
        <ele>19</ele>
        <time>2007-05-21T06:15:31Z</time>
      </trkpt>
      <trkpt lat="47.24415" lon="-2.31594">
        <ele>18</ele>
        <time>2007-05-21T06:15:43Z</time>
      </trkpt>
      <trkpt lat="47.24408" lon="-2.3156">
        <ele>18</ele>
        <time>2007-05-21T06:15:53Z</time>
      </trkpt>
      <trkpt lat="47.24406" lon="-2.31521">
        <ele>17</ele>
        <time>2007-05-21T06:16:03Z</time>
      </trkpt>
      <trkpt lat="47.24393" lon="-2.3143">
        <ele>16</ele>
        <time>2007-05-21T06:16:29Z</time>
      </trkpt>
      <trkpt lat="47.24389" lon="-2.31409">
        <ele>15</ele>
        <time>2007-05-21T06:16:34Z</time>
      </trkpt>
      <trkpt lat="47.24375" lon="-2.31382">
        <ele>14</ele>
        <time>2007-05-21T06:16:43Z</time>
      </trkpt>
      <trkpt lat="47.24364" lon="-2.31355">
        <ele>13</ele>
        <time>2007-05-21T06:16:52Z</time>
      </trkpt>
      <trkpt lat="47.24353" lon="-2.31328">
        <ele>12</ele>
        <time>2007-05-21T06:17:01Z</time>
      </trkpt>
      <trkpt lat="47.24347" lon="-2.31312">
        <ele>11</ele>
        <time>2007-05-21T06:17:06Z</time>
      </trkpt>
      <trkpt lat="47.2434" lon="-2.31294">
        <ele>10</ele>
        <time>2007-05-21T06:17:11Z</time>
      </trkpt>
      <trkpt lat="47.24321" lon="-2.31238">
        <ele>11</ele>
        <time>2007-05-21T06:17:28Z</time>
      </trkpt>
      <trkpt lat="47.24307" lon="-2.31198">
        <ele>12</ele>
        <time>2007-05-21T06:17:40Z</time>
      </trkpt>
      <trkpt lat="47.2429" lon="-2.31154">
        <ele>13</ele>
        <time>2007-05-21T06:17:54Z</time>
      </trkpt>
      <trkpt lat="47.24263" lon="-2.31088">
        <ele>13</ele>
        <time>2007-05-21T06:18:15Z</time>
      </trkpt>
      <trkpt lat="47.24234" lon="-2.31023">
        <ele>14</ele>
        <time>2007-05-21T06:18:36Z</time>
      </trkpt>
      <trkpt lat="47.2421" lon="-2.30966">
        <ele>15</ele>
        <time>2007-05-21T06:18:54Z</time>
      </trkpt>
      <trkpt lat="47.24179" lon="-2.309">
        <ele>14</ele>
        <time>2007-05-21T06:19:16Z</time>
      </trkpt>
      <trkpt lat="47.24147" lon="-2.30835">
        <ele>13</ele>
        <time>2007-05-21T06:19:38Z</time>
      </trkpt>
      <trkpt lat="47.24115" lon="-2.30768">
        <ele>14</ele>
        <time>2007-05-21T06:20:00Z</time>
      </trkpt>
      <trkpt lat="47.24096" lon="-2.3073">
        <ele>15</ele>
        <time>2007-05-21T06:20:13Z</time>
      </trkpt>
      <trkpt lat="47.24082" lon="-2.30708">
        <ele>16</ele>
        <time>2007-05-21T06:20:21Z</time>
      </trkpt>
      <trkpt lat="47.24071" lon="-2.30693">
        <ele>17</ele>
        <time>2007-05-21T06:20:27Z</time>
      </trkpt>
      <trkpt lat="47.24057" lon="-2.3068">
        <ele>17</ele>
        <time>2007-05-21T06:20:34Z</time>
      </trkpt>
      <trkpt lat="47.24044" lon="-2.30669">
        <ele>18</ele>
        <time>2007-05-21T06:20:40Z</time>
      </trkpt>
      <trkpt lat="47.24017" lon="-2.30651">
        <ele>18</ele>
        <time>2007-05-21T06:20:52Z</time>
      </trkpt>
      <trkpt lat="47.24007" lon="-2.30646">
        <ele>19</ele>
        <time>2007-05-21T06:20:56Z</time>
      </trkpt>
      <trkpt lat="47.23981" lon="-2.30634">
        <ele>20</ele>
        <time>2007-05-21T06:21:07Z</time>
      </trkpt>
      <trkpt lat="47.23952" lon="-2.30618">
        <ele>21</ele>
        <time>2007-05-21T06:21:19Z</time>
      </trkpt>
      <trkpt lat="47.23945" lon="-2.30612">
        <ele>21</ele>
        <time>2007-05-21T06:21:22Z</time>
      </trkpt>
      <trkpt lat="47.2393" lon="-2.30603">
        <ele>22</ele>
        <time>2007-05-21T06:21:29Z</time>
      </trkpt>
      <trkpt lat="47.23921" lon="-2.30595">
        <ele>22</ele>
        <time>2007-05-21T06:21:33Z</time>
      </trkpt>
      <trkpt lat="47.23912" lon="-2.30587">
        <ele>23</ele>
        <time>2007-05-21T06:21:37Z</time>
      </trkpt>
      <trkpt lat="47.23894" lon="-2.30564">
        <ele>24</ele>
        <time>2007-05-21T06:21:47Z</time>
      </trkpt>
      <trkpt lat="47.2389" lon="-2.30557">
        <ele>24</ele>
        <time>2007-05-21T06:21:49Z</time>
      </trkpt>
      <trkpt lat="47.23875" lon="-2.30535">
        <ele>24</ele>
        <time>2007-05-21T06:21:58Z</time>
      </trkpt>
      <trkpt lat="47.2387" lon="-2.30526">
        <ele>24</ele>
        <time>2007-05-21T06:22:01Z</time>
      </trkpt>
      <trkpt lat="47.23864" lon="-2.3051">
        <ele>23</ele>
        <time>2007-05-21T06:22:06Z</time>
      </trkpt>
      <trkpt lat="47.23846" lon="-2.30474">
        <ele>22</ele>
        <time>2007-05-21T06:22:18Z</time>
      </trkpt>
      <trkpt lat="47.23837" lon="-2.30448">
        <ele>22</ele>
        <time>2007-05-21T06:22:26Z</time>
      </trkpt>
      <trkpt lat="47.23817" lon="-2.3039">
        <ele>21</ele>
        <time>2007-05-21T06:22:44Z</time>
      </trkpt>
      <trkpt lat="47.2381" lon="-2.30371">
        <ele>20</ele>
        <time>2007-05-21T06:22:49Z</time>
      </trkpt>
      <trkpt lat="47.23799" lon="-2.30341">
        <ele>19</ele>
        <time>2007-05-21T06:22:59Z</time>
      </trkpt>
      <trkpt lat="47.23786" lon="-2.30308">
        <ele>18</ele>
        <time>2007-05-21T06:23:09Z</time>
      </trkpt>
      <trkpt lat="47.23778" lon="-2.30286">
        <ele>17</ele>
        <time>2007-05-21T06:23:16Z</time>
      </trkpt>
      <trkpt lat="47.23767" lon="-2.30258">
        <ele>16</ele>
        <time>2007-05-21T06:23:25Z</time>
      </trkpt>
      <trkpt lat="47.23743" lon="-2.30195">
        <ele>16</ele>
        <time>2007-05-21T06:23:44Z</time>
      </trkpt>
      <trkpt lat="47.23741" lon="-2.30188">
        <ele>17</ele>
        <time>2007-05-21T06:23:46Z</time>
      </trkpt>
      <trkpt lat="47.23737" lon="-2.30175">
        <ele>18</ele>
        <time>2007-05-21T06:23:50Z</time>
      </trkpt>
      <trkpt lat="47.2373" lon="-2.30158">
        <ele>19</ele>
        <time>2007-05-21T06:23:56Z</time>
      </trkpt>
      <trkpt lat="47.23722" lon="-2.30138">
        <ele>20</ele>
        <time>2007-05-21T06:24:02Z</time>
      </trkpt>
      <trkpt lat="47.23708" lon="-2.30099">
        <ele>21</ele>
        <time>2007-05-21T06:24:14Z</time>
      </trkpt>
      <trkpt lat="47.237" lon="-2.30074">
        <ele>22</ele>
        <time>2007-05-21T06:24:21Z</time>
      </trkpt>
      <trkpt lat="47.23698" lon="-2.30065">
        <ele>22</ele>
        <time>2007-05-21T06:24:24Z</time>
      </trkpt>
      <trkpt lat="47.237" lon="-2.30058">
        <ele>23</ele>
        <time>2007-05-21T06:24:26Z</time>
      </trkpt>
      <trkpt lat="47.23707" lon="-2.30058">
        <ele>23</ele>
        <time>2007-05-21T06:24:29Z</time>
      </trkpt>
      <trkpt lat="47.23713" lon="-2.30062">
        <ele>24</ele>
        <time>2007-05-21T06:24:31Z</time>
      </trkpt>
      <trkpt lat="47.2376" lon="-2.30093">
        <ele>24</ele>
        <time>2007-05-21T06:24:52Z</time>
      </trkpt>
      <trkpt lat="47.23766" lon="-2.30094">
        <ele>24</ele>
        <time>2007-05-21T06:24:55Z</time>
      </trkpt>
      <trkpt lat="47.23778" lon="-2.30093">
        <ele>24</ele>
        <time>2007-05-21T06:24:59Z</time>
      </trkpt>
      <trkpt lat="47.23788" lon="-2.30088">
        <ele>25</ele>
        <time>2007-05-21T06:25:04Z</time>
      </trkpt>
      <trkpt lat="47.23802" lon="-2.3008">
        <ele>26</ele>
        <time>2007-05-21T06:25:10Z</time>
      </trkpt>
      <trkpt lat="47.23817" lon="-2.3007">
        <ele>27</ele>
        <time>2007-05-21T06:25:17Z</time>
      </trkpt>
      <trkpt lat="47.23833" lon="-2.30061">
        <ele>28</ele>
        <time>2007-05-21T06:25:23Z</time>
      </trkpt>
      <trkpt lat="47.23846" lon="-2.30049">
        <ele>28</ele>
        <time>2007-05-21T06:25:30Z</time>
      </trkpt>
      <trkpt lat="47.23846" lon="-2.3004">
        <ele>29</ele>
        <time>2007-05-21T06:25:32Z</time>
      </trkpt>
      <trkpt lat="47.2384" lon="-2.3">
        <ele>30</ele>
        <time>2007-05-21T06:25:43Z</time>
      </trkpt>
      <trkpt lat="47.23828" lon="-2.29948">
        <ele>31</ele>
        <time>2007-05-21T06:25:58Z</time>
      </trkpt>
      <trkpt lat="47.23819" lon="-2.29898">
        <ele>32</ele>
        <time>2007-05-21T06:26:12Z</time>
      </trkpt>
      <trkpt lat="47.2381" lon="-2.29827">
        <ele>32</ele>
        <time>2007-05-21T06:26:32Z</time>
      </trkpt>
      <trkpt lat="47.2381" lon="-2.29812">
        <ele>32</ele>
        <time>2007-05-21T06:26:36Z</time>
      </trkpt>
      <trkpt lat="47.23814" lon="-2.29745">
        <ele>32</ele>
        <time>2007-05-21T06:26:54Z</time>
      </trkpt>
      <trkpt lat="47.23815" lon="-2.29672">
        <ele>32</ele>
        <time>2007-05-21T06:27:14Z</time>
      </trkpt>
      <trkpt lat="47.23815" lon="-2.29654">
        <ele>33</ele>
        <time>2007-05-21T06:27:19Z</time>
      </trkpt>
      <trkpt lat="47.23819" lon="-2.29583">
        <ele>34</ele>
        <time>2007-05-21T06:27:39Z</time>
      </trkpt>
      <trkpt lat="47.23818" lon="-2.29527">
        <ele>33</ele>
        <time>2007-05-21T06:27:54Z</time>
      </trkpt>
      <trkpt lat="47.23817" lon="-2.29497">
        <ele>32</ele>
        <time>2007-05-21T06:28:02Z</time>
      </trkpt>
      <trkpt lat="47.23819" lon="-2.29443">
        <ele>31</ele>
        <time>2007-05-21T06:28:16Z</time>
      </trkpt>
      <trkpt lat="47.23824" lon="-2.29429">
        <ele>31</ele>
        <time>2007-05-21T06:28:21Z</time>
      </trkpt>
      <trkpt lat="47.2384" lon="-2.29392">
        <ele>32</ele>
        <time>2007-05-21T06:28:33Z</time>
      </trkpt>
      <trkpt lat="47.23871" lon="-2.29339">
        <ele>31</ele>
        <time>2007-05-21T06:28:52Z</time>
      </trkpt>
      <trkpt lat="47.23885" lon="-2.29333">
        <ele>32</ele>
        <time>2007-05-21T06:28:57Z</time>
      </trkpt>
      <trkpt lat="47.23899" lon="-2.29332">
        <ele>32</ele>
        <time>2007-05-21T06:29:03Z</time>
      </trkpt>
      <trkpt lat="47.23913" lon="-2.29338">
        <ele>32</ele>
        <time>2007-05-21T06:29:09Z</time>
      </trkpt>
      <trkpt lat="47.23923" lon="-2.29354">
        <ele>32</ele>
        <time>2007-05-21T06:29:15Z</time>
      </trkpt>
      <trkpt lat="47.23929" lon="-2.29366">
        <ele>33</ele>
        <time>2007-05-21T06:29:19Z</time>
      </trkpt>
      <trkpt lat="47.23963" lon="-2.29435">
        <ele>33</ele>
        <time>2007-05-21T06:29:42Z</time>
      </trkpt>
      <trkpt lat="47.23971" lon="-2.29452">
        <ele>34</ele>
        <time>2007-05-21T06:29:48Z</time>
      </trkpt>
      <trkpt lat="47.23997" lon="-2.29504">
        <ele>35</ele>
        <time>2007-05-21T06:30:05Z</time>
      </trkpt>
      <trkpt lat="47.23999" lon="-2.29527">
        <ele>35</ele>
        <time>2007-05-21T06:30:12Z</time>
      </trkpt>
      <trkpt lat="47.24001" lon="-2.29578">
        <ele>36</ele>
        <time>2007-05-21T06:30:26Z</time>
      </trkpt>
      <trkpt lat="47.24001" lon="-2.29612">
        <ele>36</ele>
        <time>2007-05-21T06:30:35Z</time>
      </trkpt>
      <trkpt lat="47.24001" lon="-2.2963">
        <ele>36</ele>
        <time>2007-05-21T06:30:40Z</time>
      </trkpt>
      <trkpt lat="47.24002" lon="-2.29644">
        <ele>37</ele>
        <time>2007-05-21T06:30:44Z</time>
      </trkpt>
      <trkpt lat="47.24006" lon="-2.29688">
        <ele>38</ele>
        <time>2007-05-21T06:30:56Z</time>
      </trkpt>
      <trkpt lat="47.24006" lon="-2.29706">
        <ele>38</ele>
        <time>2007-05-21T06:31:01Z</time>
      </trkpt>
      <trkpt lat="47.24005" lon="-2.29775">
        <ele>38</ele>
        <time>2007-05-21T06:31:20Z</time>
      </trkpt>
      <trkpt lat="47.24009" lon="-2.2979">
        <ele>38</ele>
        <time>2007-05-21T06:31:24Z</time>
      </trkpt>
      <trkpt lat="47.2402" lon="-2.29797">
        <ele>39</ele>
        <time>2007-05-21T06:31:29Z</time>
      </trkpt>
      <trkpt lat="47.2403" lon="-2.29799">
        <ele>39</ele>
        <time>2007-05-21T06:31:33Z</time>
      </trkpt>
      <trkpt lat="47.2404" lon="-2.29801">
        <ele>40</ele>
        <time>2007-05-21T06:31:37Z</time>
      </trkpt>
      <trkpt lat="47.24052" lon="-2.29798">
        <ele>40</ele>
        <time>2007-05-21T06:31:42Z</time>
      </trkpt>
      <trkpt lat="47.24059" lon="-2.29801">
        <ele>41</ele>
        <time>2007-05-21T06:31:45Z</time>
      </trkpt>
      <trkpt lat="47.24059" lon="-2.29806">
        <ele>41</ele>
        <time>2007-05-21T06:31:47Z</time>
      </trkpt>
      <trkpt lat="47.24057" lon="-2.2982">
        <ele>41</ele>
        <time>2007-05-21T06:31:50Z</time>
      </trkpt>
      <trkpt lat="47.24064" lon="-2.29834">
        <ele>42</ele>
        <time>2007-05-21T06:31:55Z</time>
      </trkpt>
      <trkpt lat="47.24071" lon="-2.29838">
        <ele>42</ele>
        <time>2007-05-21T06:31:58Z</time>
      </trkpt>
      <trkpt lat="47.24104" lon="-2.29851">
        <ele>42</ele>
        <time>2007-05-21T06:32:12Z</time>
      </trkpt>
      <trkpt lat="47.24115" lon="-2.29849">
        <ele>43</ele>
        <time>2007-05-21T06:32:16Z</time>
      </trkpt>
      <trkpt lat="47.24128" lon="-2.29845">
        <ele>43</ele>
        <time>2007-05-21T06:32:21Z</time>
      </trkpt>
      <trkpt lat="47.24151" lon="-2.29845">
        <ele>43</ele>
        <time>2007-05-21T06:32:31Z</time>
      </trkpt>
      <trkpt lat="47.24152" lon="-2.29848">
        <ele>43</ele>
        <time>2007-05-21T06:32:32Z</time>
      </trkpt>
      <trkpt lat="47.24151" lon="-2.29855">
        <ele>43</ele>
        <time>2007-05-21T06:32:34Z</time>
      </trkpt>
      <trkpt lat="47.24152" lon="-2.29877">
        <ele>43</ele>
        <time>2007-05-21T06:32:40Z</time>
      </trkpt>
      <trkpt lat="47.2415" lon="-2.29891">
        <ele>43</ele>
        <time>2007-05-21T06:32:43Z</time>
      </trkpt>
      <trkpt lat="47.24154" lon="-2.29914">
        <ele>42</ele>
        <time>2007-05-21T06:32:50Z</time>
      </trkpt>
      <trkpt lat="47.2415" lon="-2.29935">
        <ele>42</ele>
        <time>2007-05-21T06:32:56Z</time>
      </trkpt>
      <trkpt lat="47.2415" lon="-2.29958">
        <ele>41</ele>
        <time>2007-05-21T06:33:02Z</time>
      </trkpt>
      <trkpt lat="47.24161" lon="-2.29969">
        <ele>40</ele>
        <time>2007-05-21T06:33:08Z</time>
      </trkpt>
      <trkpt lat="47.24179" lon="-2.29975">
        <ele>40</ele>
        <time>2007-05-21T06:33:15Z</time>
      </trkpt>
      <trkpt lat="47.24192" lon="-2.29976">
        <ele>39</ele>
        <time>2007-05-21T06:33:20Z</time>
      </trkpt>
      <trkpt lat="47.24203" lon="-2.29972">
        <ele>38</ele>
        <time>2007-05-21T06:33:25Z</time>
      </trkpt>
      <trkpt lat="47.24215" lon="-2.29967">
        <ele>37</ele>
        <time>2007-05-21T06:33:30Z</time>
      </trkpt>
      <trkpt lat="47.24232" lon="-2.2996">
        <ele>36</ele>
        <time>2007-05-21T06:33:37Z</time>
      </trkpt>
      <trkpt lat="47.24263" lon="-2.29935">
        <ele>35</ele>
        <time>2007-05-21T06:33:51Z</time>
      </trkpt>
      <trkpt lat="47.24278" lon="-2.29917">
        <ele>34</ele>
        <time>2007-05-21T06:33:59Z</time>
      </trkpt>
      <trkpt lat="47.24295" lon="-2.29901">
        <ele>34</ele>
        <time>2007-05-21T06:34:07Z</time>
      </trkpt>
      <trkpt lat="47.24303" lon="-2.29896">
        <ele>34</ele>
        <time>2007-05-21T06:34:11Z</time>
      </trkpt>
      <trkpt lat="47.24312" lon="-2.29889">
        <ele>34</ele>
        <time>2007-05-21T06:34:15Z</time>
      </trkpt>
      <trkpt lat="47.24323" lon="-2.29868">
        <ele>34</ele>
        <time>2007-05-21T06:34:21Z</time>
      </trkpt>
      <trkpt lat="47.24323" lon="-2.2985">
        <ele>34</ele>
        <time>2007-05-21T06:34:26Z</time>
      </trkpt>
      <trkpt lat="47.24326" lon="-2.29819">
        <ele>34</ele>
        <time>2007-05-21T06:34:35Z</time>
      </trkpt>
      <trkpt lat="47.24337" lon="-2.29811">
        <ele>34</ele>
        <time>2007-05-21T06:34:40Z</time>
      </trkpt>
      <trkpt lat="47.24349" lon="-2.29807">
        <ele>34</ele>
        <time>2007-05-21T06:34:45Z</time>
      </trkpt>
      <trkpt lat="47.24356" lon="-2.29803">
        <ele>34</ele>
        <time>2007-05-21T06:34:48Z</time>
      </trkpt>
      <trkpt lat="47.24363" lon="-2.29797">
        <ele>34</ele>
        <time>2007-05-21T06:34:51Z</time>
      </trkpt>
      <trkpt lat="47.24369" lon="-2.29788">
        <ele>34</ele>
        <time>2007-05-21T06:34:54Z</time>
      </trkpt>
      <trkpt lat="47.24374" lon="-2.29776">
        <ele>34</ele>
        <time>2007-05-21T06:34:58Z</time>
      </trkpt>
      <trkpt lat="47.24378" lon="-2.29767">
        <ele>33</ele>
        <time>2007-05-21T06:35:01Z</time>
      </trkpt>
      <trkpt lat="47.24385" lon="-2.29752">
        <ele>33</ele>
        <time>2007-05-21T06:35:06Z</time>
      </trkpt>
      <trkpt lat="47.24392" lon="-2.29731">
        <ele>33</ele>
        <time>2007-05-21T06:35:12Z</time>
      </trkpt>
      <trkpt lat="47.24406" lon="-2.29704">
        <ele>33</ele>
        <time>2007-05-21T06:35:22Z</time>
      </trkpt>
      <trkpt lat="47.24419" lon="-2.29699">
        <ele>33</ele>
        <time>2007-05-21T06:35:27Z</time>
      </trkpt>
      <trkpt lat="47.24427" lon="-2.29697">
        <ele>34</ele>
        <time>2007-05-21T06:35:30Z</time>
      </trkpt>
      <trkpt lat="47.24436" lon="-2.29699">
        <ele>34</ele>
        <time>2007-05-21T06:35:34Z</time>
      </trkpt>
      <trkpt lat="47.24442" lon="-2.29704">
        <ele>34</ele>
        <time>2007-05-21T06:35:37Z</time>
      </trkpt>
      <trkpt lat="47.24446" lon="-2.2972">
        <ele>34</ele>
        <time>2007-05-21T06:35:42Z</time>
      </trkpt>
      <trkpt lat="47.24464" lon="-2.29785">
        <ele>34</ele>
        <time>2007-05-21T06:36:01Z</time>
      </trkpt>
      <trkpt lat="47.2448" lon="-2.29823">
        <ele>34</ele>
        <time>2007-05-21T06:36:13Z</time>
      </trkpt>
      <trkpt lat="47.24487" lon="-2.29833">
        <ele>35</ele>
        <time>2007-05-21T06:36:17Z</time>
      </trkpt>
      <trkpt lat="47.245" lon="-2.29847">
        <ele>35</ele>
        <time>2007-05-21T06:36:23Z</time>
      </trkpt>
      <trkpt lat="47.24509" lon="-2.29853">
        <ele>35</ele>
        <time>2007-05-21T06:36:27Z</time>
      </trkpt>
      <trkpt lat="47.24555" lon="-2.29876">
        <ele>35</ele>
        <time>2007-05-21T06:36:47Z</time>
      </trkpt>
      <trkpt lat="47.24564" lon="-2.29882">
        <ele>36</ele>
        <time>2007-05-21T06:36:51Z</time>
      </trkpt>
      <trkpt lat="47.24572" lon="-2.29894">
        <ele>36</ele>
        <time>2007-05-21T06:36:55Z</time>
      </trkpt>
      <trkpt lat="47.24577" lon="-2.29906">
        <ele>36</ele>
        <time>2007-05-21T06:36:59Z</time>
      </trkpt>
      <trkpt lat="47.24594" lon="-2.29936">
        <ele>36</ele>
        <time>2007-05-21T06:37:10Z</time>
      </trkpt>
      <trkpt lat="47.24604" lon="-2.29943">
        <ele>36</ele>
        <time>2007-05-21T06:37:14Z</time>
      </trkpt>
      <trkpt lat="47.24614" lon="-2.29942">
        <ele>36</ele>
        <time>2007-05-21T06:37:18Z</time>
      </trkpt>
      <trkpt lat="47.2463" lon="-2.29937">
        <ele>36</ele>
        <time>2007-05-21T06:37:25Z</time>
      </trkpt>
      <trkpt lat="47.24682" lon="-2.2992">
        <ele>37</ele>
        <time>2007-05-21T06:37:46Z</time>
      </trkpt>
      <trkpt lat="47.24737" lon="-2.29901">
        <ele>37</ele>
        <time>2007-05-21T06:38:09Z</time>
      </trkpt>
      <trkpt lat="47.24749" lon="-2.29895">
        <ele>37</ele>
        <time>2007-05-21T06:38:14Z</time>
      </trkpt>
      <trkpt lat="47.24757" lon="-2.29888">
        <ele>37</ele>
        <time>2007-05-21T06:38:18Z</time>
      </trkpt>
      <trkpt lat="47.24803" lon="-2.29855">
        <ele>37</ele>
        <time>2007-05-21T06:38:38Z</time>
      </trkpt>
      <trkpt lat="47.24816" lon="-2.2985">
        <ele>37</ele>
        <time>2007-05-21T06:38:44Z</time>
      </trkpt>
      <trkpt lat="47.24825" lon="-2.29848">
        <ele>37</ele>
        <time>2007-05-21T06:38:47Z</time>
      </trkpt>
      <trkpt lat="47.24867" lon="-2.29843">
        <ele>37</ele>
        <time>2007-05-21T06:39:04Z</time>
      </trkpt>
      <trkpt lat="47.24872" lon="-2.29861">
        <ele>37</ele>
        <time>2007-05-21T06:39:09Z</time>
      </trkpt>
      <trkpt lat="47.2488" lon="-2.29915">
        <ele>37</ele>
        <time>2007-05-21T06:39:24Z</time>
      </trkpt>
      <trkpt lat="47.24895" lon="-2.29984">
        <ele>37</ele>
        <time>2007-05-21T06:39:44Z</time>
      </trkpt>
      <trkpt lat="47.24899" lon="-2.3">
        <ele>38</ele>
        <time>2007-05-21T06:39:49Z</time>
      </trkpt>
      <trkpt lat="47.24923" lon="-2.3006">
        <ele>38</ele>
        <time>2007-05-21T06:40:08Z</time>
      </trkpt>
      <trkpt lat="47.24936" lon="-2.30059">
        <ele>37</ele>
        <time>2007-05-21T06:40:13Z</time>
      </trkpt>
      <trkpt lat="47.24985" lon="-2.30056">
        <ele>37</ele>
        <time>2007-05-21T06:40:33Z</time>
      </trkpt>
      <trkpt lat="47.25018" lon="-2.30056">
        <ele>36</ele>
        <time>2007-05-21T06:40:46Z</time>
      </trkpt>
      <trkpt lat="47.2507" lon="-2.30059">
        <ele>36</ele>
        <time>2007-05-21T06:41:07Z</time>
      </trkpt>
      <trkpt lat="47.25074" lon="-2.30073">
        <ele>36</ele>
        <time>2007-05-21T06:41:11Z</time>
      </trkpt>
      <trkpt lat="47.25074" lon="-2.30083">
        <ele>36</ele>
        <time>2007-05-21T06:41:14Z</time>
      </trkpt>
      <trkpt lat="47.25073" lon="-2.30101">
        <ele>36</ele>
        <time>2007-05-21T06:41:19Z</time>
      </trkpt>
      <trkpt lat="47.25084" lon="-2.30139">
        <ele>36</ele>
        <time>2007-05-21T06:41:30Z</time>
      </trkpt>
      <trkpt lat="47.25099" lon="-2.30137">
        <ele>36</ele>
        <time>2007-05-21T06:41:36Z</time>
      </trkpt>
      <trkpt lat="47.25147" lon="-2.30128">
        <ele>35</ele>
        <time>2007-05-21T06:41:55Z</time>
      </trkpt>
      <trkpt lat="47.25179" lon="-2.30128">
        <ele>34</ele>
        <time>2007-05-21T06:42:08Z</time>
      </trkpt>
      <trkpt lat="47.25194" lon="-2.30148">
        <ele>34</ele>
        <time>2007-05-21T06:42:17Z</time>
      </trkpt>
      <trkpt lat="47.25211" lon="-2.30166">
        <ele>33</ele>
        <time>2007-05-21T06:42:25Z</time>
      </trkpt>
      <trkpt lat="47.25227" lon="-2.30179">
        <ele>33</ele>
        <time>2007-05-21T06:42:32Z</time>
      </trkpt>
      <trkpt lat="47.25239" lon="-2.30184">
        <ele>32</ele>
        <time>2007-05-21T06:42:37Z</time>
      </trkpt>
      <trkpt lat="47.2525" lon="-2.3019">
        <ele>31</ele>
        <time>2007-05-21T06:42:42Z</time>
      </trkpt>
      <trkpt lat="47.25287" lon="-2.30207">
        <ele>30</ele>
        <time>2007-05-21T06:42:58Z</time>
      </trkpt>
      <trkpt lat="47.25299" lon="-2.30213">
        <ele>29</ele>
        <time>2007-05-21T06:43:03Z</time>
      </trkpt>
      <trkpt lat="47.25309" lon="-2.30212">
        <ele>29</ele>
        <time>2007-05-21T06:43:07Z</time>
      </trkpt>
      <trkpt lat="47.25319" lon="-2.30209">
        <ele>28</ele>
        <time>2007-05-21T06:43:11Z</time>
      </trkpt>
      <trkpt lat="47.25329" lon="-2.30212">
        <ele>28</ele>
        <time>2007-05-21T06:43:15Z</time>
      </trkpt>
      <trkpt lat="47.25339" lon="-2.30212">
        <ele>28</ele>
        <time>2007-05-21T06:43:19Z</time>
      </trkpt>
      <trkpt lat="47.25397" lon="-2.30219">
        <ele>28</ele>
        <time>2007-05-21T06:43:43Z</time>
      </trkpt>
      <trkpt lat="47.25411" lon="-2.30225">
        <ele>29</ele>
        <time>2007-05-21T06:43:48Z</time>
      </trkpt>
      <trkpt lat="47.25457" lon="-2.30243">
        <ele>29</ele>
        <time>2007-05-21T06:44:07Z</time>
      </trkpt>
      <trkpt lat="47.25468" lon="-2.3025">
        <ele>29</ele>
        <time>2007-05-21T06:44:12Z</time>
      </trkpt>
      <trkpt lat="47.25473" lon="-2.30246">
        <ele>28</ele>
        <time>2007-05-21T06:44:15Z</time>
      </trkpt>
      <trkpt lat="47.25482" lon="-2.30229">
        <ele>28</ele>
        <time>2007-05-21T06:44:20Z</time>
      </trkpt>
      <trkpt lat="47.25489" lon="-2.30217">
        <ele>27</ele>
        <time>2007-05-21T06:44:25Z</time>
      </trkpt>
      <trkpt lat="47.25507" lon="-2.30198">
        <ele>27</ele>
        <time>2007-05-21T06:44:33Z</time>
      </trkpt>
      <trkpt lat="47.25521" lon="-2.30199">
        <ele>27</ele>
        <time>2007-05-21T06:44:39Z</time>
      </trkpt>
      <trkpt lat="47.25532" lon="-2.30199">
        <ele>26</ele>
        <time>2007-05-21T06:44:44Z</time>
      </trkpt>
      <trkpt lat="47.25547" lon="-2.30193">
        <ele>26</ele>
        <time>2007-05-21T06:44:50Z</time>
      </trkpt>
      <trkpt lat="47.25576" lon="-2.30186">
        <ele>26</ele>
        <time>2007-05-21T06:45:01Z</time>
      </trkpt>
      <trkpt lat="47.25592" lon="-2.30195">
        <ele>26</ele>
        <time>2007-05-21T06:45:09Z</time>
      </trkpt>
      <trkpt lat="47.25609" lon="-2.3021">
        <ele>25</ele>
        <time>2007-05-21T06:45:17Z</time>
      </trkpt>
      <trkpt lat="47.25616" lon="-2.30223">
        <ele>25</ele>
        <time>2007-05-21T06:45:21Z</time>
      </trkpt>
      <trkpt lat="47.25622" lon="-2.30238">
        <ele>24</ele>
        <time>2007-05-21T06:45:26Z</time>
      </trkpt>
      <trkpt lat="47.25627" lon="-2.30263">
        <ele>24</ele>
        <time>2007-05-21T06:45:33Z</time>
      </trkpt>
      <trkpt lat="47.25629" lon="-2.30282">
        <ele>23</ele>
        <time>2007-05-21T06:45:38Z</time>
      </trkpt>
      <trkpt lat="47.25633" lon="-2.30326">
        <ele>22</ele>
        <time>2007-05-21T06:45:50Z</time>
      </trkpt>
      <trkpt lat="47.25636" lon="-2.3034">
        <ele>22</ele>
        <time>2007-05-21T06:45:54Z</time>
      </trkpt>
      <trkpt lat="47.25641" lon="-2.30341">
        <ele>22</ele>
        <time>2007-05-21T06:45:57Z</time>
      </trkpt>
      <trkpt lat="47.25647" lon="-2.30333">
        <ele>22</ele>
        <time>2007-05-21T06:46:00Z</time>
      </trkpt>
      <trkpt lat="47.25653" lon="-2.30323">
        <ele>21</ele>
        <time>2007-05-21T06:46:03Z</time>
      </trkpt>
      <trkpt lat="47.25663" lon="-2.30293">
        <ele>21</ele>
        <time>2007-05-21T06:46:12Z</time>
      </trkpt>
      <trkpt lat="47.25679" lon="-2.30267">
        <ele>21</ele>
        <time>2007-05-21T06:46:22Z</time>
      </trkpt>
      <trkpt lat="47.25687" lon="-2.30244">
        <ele>22</ele>
        <time>2007-05-21T06:46:29Z</time>
      </trkpt>
      <trkpt lat="47.25705" lon="-2.30211">
        <ele>22</ele>
        <time>2007-05-21T06:46:40Z</time>
      </trkpt>
      <trkpt lat="47.25726" lon="-2.30204">
        <ele>22</ele>
        <time>2007-05-21T06:46:49Z</time>
      </trkpt>
      <trkpt lat="47.25748" lon="-2.30212">
        <ele>22</ele>
        <time>2007-05-21T06:46:58Z</time>
      </trkpt>
      <trkpt lat="47.25768" lon="-2.30223">
        <ele>22</ele>
        <time>2007-05-21T06:47:07Z</time>
      </trkpt>
      <trkpt lat="47.25783" lon="-2.3023">
        <ele>21</ele>
        <time>2007-05-21T06:47:13Z</time>
      </trkpt>
      <trkpt lat="47.2584" lon="-2.30262">
        <ele>21</ele>
        <time>2007-05-21T06:47:38Z</time>
      </trkpt>
      <trkpt lat="47.25852" lon="-2.30267">
        <ele>21</ele>
        <time>2007-05-21T06:47:43Z</time>
      </trkpt>
      <trkpt lat="47.25877" lon="-2.30268">
        <ele>21</ele>
        <time>2007-05-21T06:47:53Z</time>
      </trkpt>
      <trkpt lat="47.25884" lon="-2.3026">
        <ele>20</ele>
        <time>2007-05-21T06:47:56Z</time>
      </trkpt>
      <trkpt lat="47.25889" lon="-2.30239">
        <ele>20</ele>
        <time>2007-05-21T06:48:03Z</time>
      </trkpt>
      <trkpt lat="47.25888" lon="-2.30211">
        <ele>20</ele>
        <time>2007-05-21T06:48:10Z</time>
      </trkpt>
      <trkpt lat="47.25886" lon="-2.30196">
        <ele>20</ele>
        <time>2007-05-21T06:48:14Z</time>
      </trkpt>
      <trkpt lat="47.25884" lon="-2.30176">
        <ele>19</ele>
        <time>2007-05-21T06:48:20Z</time>
      </trkpt>
      <trkpt lat="47.25892" lon="-2.30171">
        <ele>19</ele>
        <time>2007-05-21T06:48:23Z</time>
      </trkpt>
      <trkpt lat="47.25907" lon="-2.30171">
        <ele>19</ele>
        <time>2007-05-21T06:48:29Z</time>
      </trkpt>
      <trkpt lat="47.2594" lon="-2.30167">
        <ele>19</ele>
        <time>2007-05-21T06:48:42Z</time>
      </trkpt>
      <trkpt lat="47.25957" lon="-2.30157">
        <ele>19</ele>
        <time>2007-05-21T06:48:50Z</time>
      </trkpt>
      <trkpt lat="47.25968" lon="-2.30138">
        <ele>19</ele>
        <time>2007-05-21T06:48:57Z</time>
      </trkpt>
      <trkpt lat="47.25977" lon="-2.30133">
        <ele>19</ele>
        <time>2007-05-21T06:49:00Z</time>
      </trkpt>
      <trkpt lat="47.25988" lon="-2.30134">
        <ele>20</ele>
        <time>2007-05-21T06:49:05Z</time>
      </trkpt>
      <trkpt lat="47.25997" lon="-2.30132">
        <ele>20</ele>
        <time>2007-05-21T06:49:09Z</time>
      </trkpt>
      <trkpt lat="47.26003" lon="-2.30134">
        <ele>20</ele>
        <time>2007-05-21T06:49:11Z</time>
      </trkpt>
      <trkpt lat="47.26012" lon="-2.30134">
        <ele>21</ele>
        <time>2007-05-21T06:49:15Z</time>
      </trkpt>
      <trkpt lat="47.2602" lon="-2.3014">
        <ele>21</ele>
        <time>2007-05-21T06:49:18Z</time>
      </trkpt>
      <trkpt lat="47.26028" lon="-2.30142">
        <ele>21</ele>
        <time>2007-05-21T06:49:22Z</time>
      </trkpt>
      <trkpt lat="47.26035" lon="-2.30142">
        <ele>22</ele>
        <time>2007-05-21T06:49:25Z</time>
      </trkpt>
      <trkpt lat="47.26054" lon="-2.30143">
        <ele>23</ele>
        <time>2007-05-21T06:49:32Z</time>
      </trkpt>
      <trkpt lat="47.26062" lon="-2.30147">
        <ele>24</ele>
        <time>2007-05-21T06:49:35Z</time>
      </trkpt>
      <trkpt lat="47.26069" lon="-2.30154">
        <ele>24</ele>
        <time>2007-05-21T06:49:39Z</time>
      </trkpt>
      <trkpt lat="47.26077" lon="-2.30159">
        <ele>25</ele>
        <time>2007-05-21T06:49:42Z</time>
      </trkpt>
      <trkpt lat="47.26081" lon="-2.30159">
        <ele>25</ele>
        <time>2007-05-21T06:49:44Z</time>
      </trkpt>
      <trkpt lat="47.26097" lon="-2.3016">
        <ele>26</ele>
        <time>2007-05-21T06:49:51Z</time>
      </trkpt>
      <trkpt lat="47.26101" lon="-2.30165">
        <ele>26</ele>
        <time>2007-05-21T06:49:53Z</time>
      </trkpt>
      <trkpt lat="47.26107" lon="-2.30168">
        <ele>26</ele>
        <time>2007-05-21T06:49:56Z</time>
      </trkpt>
      <trkpt lat="47.26117" lon="-2.30167">
        <ele>26</ele>
        <time>2007-05-21T06:49:59Z</time>
      </trkpt>
      <trkpt lat="47.26126" lon="-2.30163">
        <ele>26</ele>
        <time>2007-05-21T06:50:03Z</time>
      </trkpt>
      <trkpt lat="47.26143" lon="-2.30157">
        <ele>27</ele>
        <time>2007-05-21T06:50:10Z</time>
      </trkpt>
      <trkpt lat="47.26172" lon="-2.3015">
        <ele>27</ele>
        <time>2007-05-21T06:50:22Z</time>
      </trkpt>
      <trkpt lat="47.26176" lon="-2.30156">
        <ele>28</ele>
        <time>2007-05-21T06:50:24Z</time>
      </trkpt>
      <trkpt lat="47.26181" lon="-2.30155">
        <ele>28</ele>
        <time>2007-05-21T06:50:27Z</time>
      </trkpt>
      <trkpt lat="47.26187" lon="-2.30153">
        <ele>28</ele>
        <time>2007-05-21T06:50:29Z</time>
      </trkpt>
      <trkpt lat="47.26208" lon="-2.30146">
        <ele>29</ele>
        <time>2007-05-21T06:50:38Z</time>
      </trkpt>
      <trkpt lat="47.26237" lon="-2.30136">
        <ele>30</ele>
        <time>2007-05-21T06:50:50Z</time>
      </trkpt>
      <trkpt lat="47.26242" lon="-2.30133">
        <ele>30</ele>
        <time>2007-05-21T06:50:52Z</time>
      </trkpt>
      <trkpt lat="47.26249" lon="-2.30135">
        <ele>30</ele>
        <time>2007-05-21T06:50:54Z</time>
      </trkpt>
      <trkpt lat="47.26254" lon="-2.30147">
        <ele>30</ele>
        <time>2007-05-21T06:50:58Z</time>
      </trkpt>
      <trkpt lat="47.26258" lon="-2.30157">
        <ele>31</ele>
        <time>2007-05-21T06:51:01Z</time>
      </trkpt>
      <trkpt lat="47.2627" lon="-2.30197">
        <ele>30</ele>
        <time>2007-05-21T06:51:13Z</time>
      </trkpt>
      <trkpt lat="47.26273" lon="-2.30219">
        <ele>30</ele>
        <time>2007-05-21T06:51:19Z</time>
      </trkpt>
      <trkpt lat="47.26282" lon="-2.30271">
        <ele>29</ele>
        <time>2007-05-21T06:51:34Z</time>
      </trkpt>
      <trkpt lat="47.26299" lon="-2.30323">
        <ele>28</ele>
        <time>2007-05-21T06:51:50Z</time>
      </trkpt>
      <trkpt lat="47.26308" lon="-2.30367">
        <ele>28</ele>
        <time>2007-05-21T06:52:02Z</time>
      </trkpt>
      <trkpt lat="47.2632" lon="-2.30437">
        <ele>28</ele>
        <time>2007-05-21T06:52:22Z</time>
      </trkpt>
      <trkpt lat="47.26336" lon="-2.30512">
        <ele>27</ele>
        <time>2007-05-21T06:52:43Z</time>
      </trkpt>
      <trkpt lat="47.26347" lon="-2.30583">
        <ele>27</ele>
        <time>2007-05-21T06:53:03Z</time>
      </trkpt>
      <trkpt lat="47.26358" lon="-2.30611">
        <ele>26</ele>
        <time>2007-05-21T06:53:12Z</time>
      </trkpt>
      <trkpt lat="47.2639" lon="-2.30666">
        <ele>26</ele>
        <time>2007-05-21T06:53:32Z</time>
      </trkpt>
      <trkpt lat="47.26403" lon="-2.30673">
        <ele>26</ele>
        <time>2007-05-21T06:53:37Z</time>
      </trkpt>
      <trkpt lat="47.26421" lon="-2.30692">
        <ele>26</ele>
        <time>2007-05-21T06:53:46Z</time>
      </trkpt>
      <trkpt lat="47.26431" lon="-2.30711">
        <ele>26</ele>
        <time>2007-05-21T06:53:53Z</time>
      </trkpt>
      <trkpt lat="47.2646" lon="-2.30784">
        <ele>26</ele>
        <time>2007-05-21T06:54:16Z</time>
      </trkpt>
      <trkpt lat="47.26476" lon="-2.30828">
        <ele>25</ele>
        <time>2007-05-21T06:54:30Z</time>
      </trkpt>
      <trkpt lat="47.26498" lon="-2.30881">
        <ele>24</ele>
        <time>2007-05-21T06:54:46Z</time>
      </trkpt>
      <trkpt lat="47.26506" lon="-2.30887">
        <ele>24</ele>
        <time>2007-05-21T06:54:50Z</time>
      </trkpt>
      <trkpt lat="47.26512" lon="-2.30883">
        <ele>25</ele>
        <time>2007-05-21T06:54:53Z</time>
      </trkpt>
      <trkpt lat="47.26521" lon="-2.30875">
        <ele>25</ele>
        <time>2007-05-21T06:54:57Z</time>
      </trkpt>
      <trkpt lat="47.26526" lon="-2.30872">
        <ele>25</ele>
        <time>2007-05-21T06:54:59Z</time>
      </trkpt>
      <trkpt lat="47.26531" lon="-2.30865">
        <ele>25</ele>
        <time>2007-05-21T06:55:02Z</time>
      </trkpt>
      <trkpt lat="47.26537" lon="-2.30858">
        <ele>26</ele>
        <time>2007-05-21T06:55:05Z</time>
      </trkpt>
      <trkpt lat="47.26543" lon="-2.30853">
        <ele>26</ele>
        <time>2007-05-21T06:55:08Z</time>
      </trkpt>
      <trkpt lat="47.26549" lon="-2.3085">
        <ele>26</ele>
        <time>2007-05-21T06:55:10Z</time>
      </trkpt>
      <trkpt lat="47.26558" lon="-2.30837">
        <ele>27</ele>
        <time>2007-05-21T06:55:15Z</time>
      </trkpt>
      <trkpt lat="47.26579" lon="-2.30808">
        <ele>28</ele>
        <time>2007-05-21T06:55:26Z</time>
      </trkpt>
      <trkpt lat="47.26603" lon="-2.30781">
        <ele>28</ele>
        <time>2007-05-21T06:55:39Z</time>
      </trkpt>
      <trkpt lat="47.26608" lon="-2.30772">
        <ele>28</ele>
        <time>2007-05-21T06:55:42Z</time>
      </trkpt>
      <trkpt lat="47.26611" lon="-2.3076">
        <ele>28</ele>
        <time>2007-05-21T06:55:45Z</time>
      </trkpt>
      <trkpt lat="47.2662" lon="-2.30749">
        <ele>28</ele>
        <time>2007-05-21T06:55:50Z</time>
      </trkpt>
      <trkpt lat="47.26623" lon="-2.30742">
        <ele>28</ele>
        <time>2007-05-21T06:55:52Z</time>
      </trkpt>
      <trkpt lat="47.26628" lon="-2.30738">
        <ele>28</ele>
        <time>2007-05-21T06:55:55Z</time>
      </trkpt>
      <trkpt lat="47.2664" lon="-2.30722">
        <ele>28</ele>
        <time>2007-05-21T06:56:01Z</time>
      </trkpt>
      <trkpt lat="47.26646" lon="-2.30709">
        <ele>28</ele>
        <time>2007-05-21T06:56:05Z</time>
      </trkpt>
      <trkpt lat="47.26652" lon="-2.30699">
        <ele>28</ele>
        <time>2007-05-21T06:56:09Z</time>
      </trkpt>
      <trkpt lat="47.26659" lon="-2.30699">
        <ele>28</ele>
        <time>2007-05-21T06:56:12Z</time>
      </trkpt>
      <trkpt lat="47.26665" lon="-2.30709">
        <ele>28</ele>
        <time>2007-05-21T06:56:16Z</time>
      </trkpt>
      <trkpt lat="47.26678" lon="-2.30738">
        <ele>27</ele>
        <time>2007-05-21T06:56:25Z</time>
      </trkpt>
      <trkpt lat="47.26702" lon="-2.30796">
        <ele>27</ele>
        <time>2007-05-21T06:56:44Z</time>
      </trkpt>
      <trkpt lat="47.26707" lon="-2.30809">
        <ele>28</ele>
        <time>2007-05-21T06:56:48Z</time>
      </trkpt>
      <trkpt lat="47.26736" lon="-2.30869">
        <ele>28</ele>
        <time>2007-05-21T06:57:08Z</time>
      </trkpt>
      <trkpt lat="47.26744" lon="-2.30872">
        <ele>28</ele>
        <time>2007-05-21T06:57:11Z</time>
      </trkpt>
      <trkpt lat="47.26751" lon="-2.30867">
        <ele>28</ele>
        <time>2007-05-21T06:57:14Z</time>
      </trkpt>
      <trkpt lat="47.26756" lon="-2.30861">
        <ele>28</ele>
        <time>2007-05-21T06:57:17Z</time>
      </trkpt>
      <trkpt lat="47.26796" lon="-2.30819">
        <ele>27</ele>
        <time>2007-05-21T06:57:36Z</time>
      </trkpt>
      <trkpt lat="47.26829" lon="-2.3079">
        <ele>27</ele>
        <time>2007-05-21T06:57:52Z</time>
      </trkpt>
      <trkpt lat="47.26836" lon="-2.30781">
        <ele>27</ele>
        <time>2007-05-21T06:57:56Z</time>
      </trkpt>
      <trkpt lat="47.26844" lon="-2.30764">
        <ele>27</ele>
        <time>2007-05-21T06:58:01Z</time>
      </trkpt>
      <trkpt lat="47.26855" lon="-2.30729">
        <ele>28</ele>
        <time>2007-05-21T06:58:12Z</time>
      </trkpt>
      <trkpt lat="47.26875" lon="-2.30686">
        <ele>28</ele>
        <time>2007-05-21T06:58:26Z</time>
      </trkpt>
      <trkpt lat="47.26886" lon="-2.3067">
        <ele>28</ele>
        <time>2007-05-21T06:58:32Z</time>
      </trkpt>
      <trkpt lat="47.26897" lon="-2.30658">
        <ele>28</ele>
        <time>2007-05-21T06:58:38Z</time>
      </trkpt>
      <trkpt lat="47.26918" lon="-2.3064">
        <ele>28</ele>
        <time>2007-05-21T06:58:47Z</time>
      </trkpt>
      <trkpt lat="47.2693" lon="-2.30635">
        <ele>28</ele>
        <time>2007-05-21T06:58:53Z</time>
      </trkpt>
      <trkpt lat="47.26943" lon="-2.30632">
        <ele>28</ele>
        <time>2007-05-21T06:58:58Z</time>
      </trkpt>
      <trkpt lat="47.26962" lon="-2.30627">
        <ele>27</ele>
        <time>2007-05-21T06:59:06Z</time>
      </trkpt>
      <trkpt lat="47.26979" lon="-2.30621">
        <ele>27</ele>
        <time>2007-05-21T06:59:12Z</time>
      </trkpt>
      <trkpt lat="47.26991" lon="-2.30614">
        <ele>27</ele>
        <time>2007-05-21T06:59:18Z</time>
      </trkpt>
      <trkpt lat="47.27005" lon="-2.30603">
        <ele>26</ele>
        <time>2007-05-21T06:59:24Z</time>
      </trkpt>
      <trkpt lat="47.27012" lon="-2.30591">
        <ele>26</ele>
        <time>2007-05-21T06:59:28Z</time>
      </trkpt>
      <trkpt lat="47.27019" lon="-2.3057">
        <ele>25</ele>
        <time>2007-05-21T06:59:35Z</time>
      </trkpt>
      <trkpt lat="47.2704" lon="-2.30485">
        <ele>25</ele>
        <time>2007-05-21T06:59:59Z</time>
      </trkpt>
      <trkpt lat="47.27052" lon="-2.30419">
        <ele>25</ele>
        <time>2007-05-21T07:00:18Z</time>
      </trkpt>
      <trkpt lat="47.27055" lon="-2.30396">
        <ele>26</ele>
        <time>2007-05-21T07:00:24Z</time>
      </trkpt>
      <trkpt lat="47.27064" lon="-2.30329">
        <ele>26</ele>
        <time>2007-05-21T07:00:43Z</time>
      </trkpt>
      <trkpt lat="47.27077" lon="-2.30279">
        <ele>26</ele>
        <time>2007-05-21T07:00:57Z</time>
      </trkpt>
      <trkpt lat="47.27086" lon="-2.30267">
        <ele>26</ele>
        <time>2007-05-21T07:01:02Z</time>
      </trkpt>
      <trkpt lat="47.27095" lon="-2.30264">
        <ele>26</ele>
        <time>2007-05-21T07:01:06Z</time>
      </trkpt>
      <trkpt lat="47.27138" lon="-2.30249">
        <ele>25</ele>
        <time>2007-05-21T07:01:24Z</time>
      </trkpt>
      <trkpt lat="47.27147" lon="-2.30252">
        <ele>25</ele>
        <time>2007-05-21T07:01:27Z</time>
      </trkpt>
      <trkpt lat="47.2717" lon="-2.30264">
        <ele>24</ele>
        <time>2007-05-21T07:01:37Z</time>
      </trkpt>
      <trkpt lat="47.27183" lon="-2.30261">
        <ele>24</ele>
        <time>2007-05-21T07:01:42Z</time>
      </trkpt>
      <trkpt lat="47.27189" lon="-2.30256">
        <ele>24</ele>
        <time>2007-05-21T07:01:45Z</time>
      </trkpt>
      <trkpt lat="47.27202" lon="-2.30258">
        <ele>24</ele>
        <time>2007-05-21T07:01:51Z</time>
      </trkpt>
      <trkpt lat="47.27261" lon="-2.30267">
        <ele>23</ele>
        <time>2007-05-21T07:02:14Z</time>
      </trkpt>
      <trkpt lat="47.27273" lon="-2.30265">
        <ele>23</ele>
        <time>2007-05-21T07:02:19Z</time>
      </trkpt>
      <trkpt lat="47.2729" lon="-2.30263">
        <ele>23</ele>
        <time>2007-05-21T07:02:26Z</time>
      </trkpt>
      <trkpt lat="47.27322" lon="-2.30263">
        <ele>24</ele>
        <time>2007-05-21T07:02:39Z</time>
      </trkpt>
      <trkpt lat="47.27368" lon="-2.3026">
        <ele>24</ele>
        <time>2007-05-21T07:02:57Z</time>
      </trkpt>
      <trkpt lat="47.27382" lon="-2.30255">
        <ele>24</ele>
        <time>2007-05-21T07:03:03Z</time>
      </trkpt>
      <trkpt lat="47.27393" lon="-2.3025">
        <ele>24</ele>
        <time>2007-05-21T07:03:08Z</time>
      </trkpt>
      <trkpt lat="47.27414" lon="-2.30238">
        <ele>25</ele>
        <time>2007-05-21T07:03:17Z</time>
      </trkpt>
      <trkpt lat="47.27458" lon="-2.30223">
        <ele>26</ele>
        <time>2007-05-21T07:03:35Z</time>
      </trkpt>
      <trkpt lat="47.27463" lon="-2.30233">
        <ele>26</ele>
        <time>2007-05-21T07:03:39Z</time>
      </trkpt>
      <trkpt lat="47.27467" lon="-2.30247">
        <ele>25</ele>
        <time>2007-05-21T07:03:42Z</time>
      </trkpt>
      <trkpt lat="47.27483" lon="-2.3032">
        <ele>24</ele>
        <time>2007-05-21T07:04:04Z</time>
      </trkpt>
      <trkpt lat="47.2749" lon="-2.30349">
        <ele>23</ele>
        <time>2007-05-21T07:04:12Z</time>
      </trkpt>
      <trkpt lat="47.27499" lon="-2.30381">
        <ele>22</ele>
        <time>2007-05-21T07:04:21Z</time>
      </trkpt>
      <trkpt lat="47.27503" lon="-2.30405">
        <ele>21</ele>
        <time>2007-05-21T07:04:28Z</time>
      </trkpt>
      <trkpt lat="47.27509" lon="-2.30438">
        <ele>20</ele>
        <time>2007-05-21T07:04:38Z</time>
      </trkpt>
      <trkpt lat="47.27519" lon="-2.30488">
        <ele>19</ele>
        <time>2007-05-21T07:04:52Z</time>
      </trkpt>
      <trkpt lat="47.27525" lon="-2.30526">
        <ele>18</ele>
        <time>2007-05-21T07:05:02Z</time>
      </trkpt>
      <trkpt lat="47.27538" lon="-2.3057">
        <ele>18</ele>
        <time>2007-05-21T07:05:15Z</time>
      </trkpt>
      <trkpt lat="47.27547" lon="-2.30594">
        <ele>18</ele>
        <time>2007-05-21T07:05:23Z</time>
      </trkpt>
      <trkpt lat="47.27549" lon="-2.30601">
        <ele>18</ele>
        <time>2007-05-21T07:05:25Z</time>
      </trkpt>
      <trkpt lat="47.27566" lon="-2.30668">
        <ele>19</ele>
        <time>2007-05-21T07:05:44Z</time>
      </trkpt>
      <trkpt lat="47.27577" lon="-2.30729">
        <ele>18</ele>
        <time>2007-05-21T07:06:01Z</time>
      </trkpt>
      <trkpt lat="47.27597" lon="-2.30794">
        <ele>18</ele>
        <time>2007-05-21T07:06:21Z</time>
      </trkpt>
      <trkpt lat="47.27611" lon="-2.30823">
        <ele>18</ele>
        <time>2007-05-21T07:06:31Z</time>
      </trkpt>
      <trkpt lat="47.27617" lon="-2.3084">
        <ele>18</ele>
        <time>2007-05-21T07:06:36Z</time>
      </trkpt>
      <trkpt lat="47.27623" lon="-2.30855">
        <ele>18</ele>
        <time>2007-05-21T07:06:41Z</time>
      </trkpt>
      <trkpt lat="47.2765" lon="-2.3091">
        <ele>17</ele>
        <time>2007-05-21T07:06:59Z</time>
      </trkpt>
      <trkpt lat="47.27677" lon="-2.30972">
        <ele>16</ele>
        <time>2007-05-21T07:07:19Z</time>
      </trkpt>
      <trkpt lat="47.27708" lon="-2.3105">
        <ele>16</ele>
        <time>2007-05-21T07:07:44Z</time>
      </trkpt>
      <trkpt lat="47.27718" lon="-2.31098">
        <ele>16</ele>
        <time>2007-05-21T07:07:57Z</time>
      </trkpt>
      <trkpt lat="47.27713" lon="-2.31112">
        <ele>16</ele>
        <time>2007-05-21T07:08:02Z</time>
      </trkpt>
      <trkpt lat="47.27691" lon="-2.31175">
        <ele>16</ele>
        <time>2007-05-21T07:08:21Z</time>
      </trkpt>
      <trkpt lat="47.27674" lon="-2.31252">
        <ele>16</ele>
        <time>2007-05-21T07:08:43Z</time>
      </trkpt>
      <trkpt lat="47.27662" lon="-2.31303">
        <ele>15</ele>
        <time>2007-05-21T07:08:58Z</time>
      </trkpt>
      <trkpt lat="47.27645" lon="-2.31356">
        <ele>14</ele>
        <time>2007-05-21T07:09:14Z</time>
      </trkpt>
      <trkpt lat="47.27638" lon="-2.3138">
        <ele>13</ele>
        <time>2007-05-21T07:09:21Z</time>
      </trkpt>
      <trkpt lat="47.27628" lon="-2.31412">
        <ele>12</ele>
        <time>2007-05-21T07:09:30Z</time>
      </trkpt>
      <trkpt lat="47.2761" lon="-2.31482">
        <ele>11</ele>
        <time>2007-05-21T07:09:51Z</time>
      </trkpt>
      <trkpt lat="47.27593" lon="-2.31544">
        <ele>11</ele>
        <time>2007-05-21T07:10:09Z</time>
      </trkpt>
      <trkpt lat="47.27583" lon="-2.31576">
        <ele>10</ele>
        <time>2007-05-21T07:10:18Z</time>
      </trkpt>
      <trkpt lat="47.27575" lon="-2.31595">
        <ele>10</ele>
        <time>2007-05-21T07:10:25Z</time>
      </trkpt>
      <trkpt lat="47.27552" lon="-2.31664">
        <ele>10</ele>
        <time>2007-05-21T07:10:45Z</time>
      </trkpt>
      <trkpt lat="47.27538" lon="-2.31719">
        <ele>9</ele>
        <time>2007-05-21T07:11:01Z</time>
      </trkpt>
      <trkpt lat="47.27526" lon="-2.31782">
        <ele>9</ele>
        <time>2007-05-21T07:11:19Z</time>
      </trkpt>
      <trkpt lat="47.27515" lon="-2.31831">
        <ele>8</ele>
        <time>2007-05-21T07:11:33Z</time>
      </trkpt>
      <trkpt lat="47.27496" lon="-2.31887">
        <ele>7</ele>
        <time>2007-05-21T07:11:50Z</time>
      </trkpt>
      <trkpt lat="47.2747" lon="-2.31951">
        <ele>7</ele>
        <time>2007-05-21T07:12:11Z</time>
      </trkpt>
      <trkpt lat="47.27433" lon="-2.32028">
        <ele>7</ele>
        <time>2007-05-21T07:12:36Z</time>
      </trkpt>
      <trkpt lat="47.27423" lon="-2.32042">
        <ele>7</ele>
        <time>2007-05-21T07:12:42Z</time>
      </trkpt>
      <trkpt lat="47.27406" lon="-2.32039">
        <ele>7</ele>
        <time>2007-05-21T07:12:49Z</time>
      </trkpt>
      <trkpt lat="47.27396" lon="-2.32032">
        <ele>6</ele>
        <time>2007-05-21T07:12:53Z</time>
      </trkpt>
      <trkpt lat="47.27381" lon="-2.3202">
        <ele>6</ele>
        <time>2007-05-21T07:13:00Z</time>
      </trkpt>
      <trkpt lat="47.27341" lon="-2.31983">
        <ele>6</ele>
        <time>2007-05-21T07:13:18Z</time>
      </trkpt>
      <trkpt lat="47.27329" lon="-2.31976">
        <ele>6</ele>
        <time>2007-05-21T07:13:24Z</time>
      </trkpt>
      <trkpt lat="47.27321" lon="-2.31969">
        <ele>7</ele>
        <time>2007-05-21T07:13:27Z</time>
      </trkpt>
      <trkpt lat="47.27289" lon="-2.31948">
        <ele>8</ele>
        <time>2007-05-21T07:13:42Z</time>
      </trkpt>
      <trkpt lat="47.27281" lon="-2.31944">
        <ele>8</ele>
        <time>2007-05-21T07:13:45Z</time>
      </trkpt>
      <trkpt lat="47.27267" lon="-2.31938">
        <ele>9</ele>
        <time>2007-05-21T07:13:51Z</time>
      </trkpt>
      <trkpt lat="47.27223" lon="-2.31924">
        <ele>9</ele>
        <time>2007-05-21T07:14:09Z</time>
      </trkpt>
      <trkpt lat="47.27211" lon="-2.31936">
        <ele>9</ele>
        <time>2007-05-21T07:14:15Z</time>
      </trkpt>
      <trkpt lat="47.27205" lon="-2.31945">
        <ele>9</ele>
        <time>2007-05-21T07:14:18Z</time>
      </trkpt>
      <trkpt lat="47.27195" lon="-2.31954">
        <ele>9</ele>
        <time>2007-05-21T07:14:23Z</time>
      </trkpt>
      <trkpt lat="47.27185" lon="-2.31963">
        <ele>8</ele>
        <time>2007-05-21T07:14:27Z</time>
      </trkpt>
      <trkpt lat="47.27172" lon="-2.31984">
        <ele>8</ele>
        <time>2007-05-21T07:14:35Z</time>
      </trkpt>
      <trkpt lat="47.27166" lon="-2.31995">
        <ele>8</ele>
        <time>2007-05-21T07:14:39Z</time>
      </trkpt>
      <trkpt lat="47.27154" lon="-2.31994">
        <ele>7</ele>
        <time>2007-05-21T07:14:44Z</time>
      </trkpt>
      <trkpt lat="47.27147" lon="-2.3199">
        <ele>7</ele>
        <time>2007-05-21T07:14:47Z</time>
      </trkpt>
      <trkpt lat="47.27137" lon="-2.31982">
        <ele>7</ele>
        <time>2007-05-21T07:14:51Z</time>
      </trkpt>
      <trkpt lat="47.27108" lon="-2.31964">
        <ele>7</ele>
        <time>2007-05-21T07:15:04Z</time>
      </trkpt>
      <trkpt lat="47.27097" lon="-2.31962">
        <ele>8</ele>
        <time>2007-05-21T07:15:09Z</time>
      </trkpt>
      <trkpt lat="47.27075" lon="-2.31959">
        <ele>8</ele>
        <time>2007-05-21T07:15:17Z</time>
      </trkpt>
      <trkpt lat="47.27054" lon="-2.31957">
        <ele>9</ele>
        <time>2007-05-21T07:15:26Z</time>
      </trkpt>
      <trkpt lat="47.27043" lon="-2.31959">
        <ele>9</ele>
        <time>2007-05-21T07:15:30Z</time>
      </trkpt>
      <trkpt lat="47.27033" lon="-2.31964">
        <ele>9</ele>
        <time>2007-05-21T07:15:34Z</time>
      </trkpt>
      <trkpt lat="47.27024" lon="-2.3197">
        <ele>10</ele>
        <time>2007-05-21T07:15:38Z</time>
      </trkpt>
      <trkpt lat="47.2701" lon="-2.31999">
        <ele>10</ele>
        <time>2007-05-21T07:15:48Z</time>
      </trkpt>
      <trkpt lat="47.27015" lon="-2.32018">
        <ele>10</ele>
        <time>2007-05-21T07:15:53Z</time>
      </trkpt>
      <trkpt lat="47.27018" lon="-2.32044">
        <ele>9</ele>
        <time>2007-05-21T07:16:00Z</time>
      </trkpt>
      <trkpt lat="47.27018" lon="-2.32061">
        <ele>9</ele>
        <time>2007-05-21T07:16:05Z</time>
      </trkpt>
      <trkpt lat="47.27018" lon="-2.32081">
        <ele>8</ele>
        <time>2007-05-21T07:16:11Z</time>
      </trkpt>
      <trkpt lat="47.27012" lon="-2.32113">
        <ele>7</ele>
        <time>2007-05-21T07:16:20Z</time>
      </trkpt>
      <trkpt lat="47.26999" lon="-2.32132">
        <ele>7</ele>
        <time>2007-05-21T07:16:27Z</time>
      </trkpt>
      <trkpt lat="47.26992" lon="-2.32145">
        <ele>6</ele>
        <time>2007-05-21T07:16:31Z</time>
      </trkpt>
      <trkpt lat="47.26995" lon="-2.32158">
        <ele>6</ele>
        <time>2007-05-21T07:16:35Z</time>
      </trkpt>
      <trkpt lat="47.27005" lon="-2.32175">
        <ele>5</ele>
        <time>2007-05-21T07:16:42Z</time>
      </trkpt>
      <trkpt lat="47.27017" lon="-2.32199">
        <ele>4</ele>
        <time>2007-05-21T07:16:49Z</time>
      </trkpt>
      <trkpt lat="47.27024" lon="-2.32219">
        <ele>4</ele>
        <time>2007-05-21T07:16:56Z</time>
      </trkpt>
      <trkpt lat="47.27025" lon="-2.32243">
        <ele>4</ele>
        <time>2007-05-21T07:17:02Z</time>
      </trkpt>
      <trkpt lat="47.27022" lon="-2.32262">
        <ele>3</ele>
        <time>2007-05-21T07:17:07Z</time>
      </trkpt>
      <trkpt lat="47.27021" lon="-2.32323">
        <ele>3</ele>
        <time>2007-05-21T07:17:24Z</time>
      </trkpt>
      <trkpt lat="47.27022" lon="-2.3235">
        <ele>3</ele>
        <time>2007-05-21T07:17:32Z</time>
      </trkpt>
      <trkpt lat="47.2703" lon="-2.32434">
        <ele>3</ele>
        <time>2007-05-21T07:17:55Z</time>
      </trkpt>
      <trkpt lat="47.27023" lon="-2.32503">
        <ele>3</ele>
        <time>2007-05-21T07:18:14Z</time>
      </trkpt>
      <trkpt lat="47.2701" lon="-2.32505">
        <ele>4</ele>
        <time>2007-05-21T07:18:19Z</time>
      </trkpt>
      <trkpt lat="47.27" lon="-2.32498">
        <ele>4</ele>
        <time>2007-05-21T07:18:23Z</time>
      </trkpt>
      <trkpt lat="47.26993" lon="-2.32485">
        <ele>4</ele>
        <time>2007-05-21T07:18:28Z</time>
      </trkpt>
      <trkpt lat="47.26988" lon="-2.32475">
        <ele>5</ele>
        <time>2007-05-21T07:18:31Z</time>
      </trkpt>
      <trkpt lat="47.26955" lon="-2.32423">
        <ele>6</ele>
        <time>2007-05-21T07:18:50Z</time>
      </trkpt>
      <trkpt lat="47.26943" lon="-2.32395">
        <ele>6</ele>
        <time>2007-05-21T07:18:59Z</time>
      </trkpt>
      <trkpt lat="47.26939" lon="-2.32385">
        <ele>7</ele>
        <time>2007-05-21T07:19:02Z</time>
      </trkpt>
      <trkpt lat="47.26929" lon="-2.32349">
        <ele>8</ele>
        <time>2007-05-21T07:19:13Z</time>
      </trkpt>
      <trkpt lat="47.2692" lon="-2.32336">
        <ele>8</ele>
        <time>2007-05-21T07:19:18Z</time>
      </trkpt>
      <trkpt lat="47.26911" lon="-2.32335">
        <ele>8</ele>
        <time>2007-05-21T07:19:21Z</time>
      </trkpt>
      <trkpt lat="47.26905" lon="-2.32336">
        <ele>9</ele>
        <time>2007-05-21T07:19:24Z</time>
      </trkpt>
      <trkpt lat="47.26891" lon="-2.32341">
        <ele>10</ele>
        <time>2007-05-21T07:19:30Z</time>
      </trkpt>
      <trkpt lat="47.26884" lon="-2.32343">
        <ele>11</ele>
        <time>2007-05-21T07:19:33Z</time>
      </trkpt>
      <trkpt lat="47.26872" lon="-2.32346">
        <ele>12</ele>
        <time>2007-05-21T07:19:37Z</time>
      </trkpt>
      <trkpt lat="47.26856" lon="-2.32348">
        <ele>13</ele>
        <time>2007-05-21T07:19:44Z</time>
      </trkpt>
      <trkpt lat="47.26841" lon="-2.32351">
        <ele>14</ele>
        <time>2007-05-21T07:19:50Z</time>
      </trkpt>
      <trkpt lat="47.26833" lon="-2.32352">
        <ele>15</ele>
        <time>2007-05-21T07:19:53Z</time>
      </trkpt>
      <trkpt lat="47.26816" lon="-2.32358">
        <ele>16</ele>
        <time>2007-05-21T07:20:00Z</time>
      </trkpt>
      <trkpt lat="47.26788" lon="-2.32368">
        <ele>17</ele>
        <time>2007-05-21T07:20:11Z</time>
      </trkpt>
      <trkpt lat="47.26779" lon="-2.3238">
        <ele>17</ele>
        <time>2007-05-21T07:20:16Z</time>
      </trkpt>
      <trkpt lat="47.2678" lon="-2.32394">
        <ele>17</ele>
        <time>2007-05-21T07:20:20Z</time>
      </trkpt>
      <trkpt lat="47.26781" lon="-2.32407">
        <ele>17</ele>
        <time>2007-05-21T07:20:24Z</time>
      </trkpt>
      <trkpt lat="47.26795" lon="-2.32481">
        <ele>16</ele>
        <time>2007-05-21T07:20:45Z</time>
      </trkpt>
      <trkpt lat="47.26798" lon="-2.32523">
        <ele>16</ele>
        <time>2007-05-21T07:20:56Z</time>
      </trkpt>
      <trkpt lat="47.26802" lon="-2.32595">
        <ele>16</ele>
        <time>2007-05-21T07:21:16Z</time>
      </trkpt>
      <trkpt lat="47.26807" lon="-2.32611">
        <ele>16</ele>
        <time>2007-05-21T07:21:21Z</time>
      </trkpt>
      <trkpt lat="47.26812" lon="-2.3264">
        <ele>15</ele>
        <time>2007-05-21T07:21:29Z</time>
      </trkpt>
      <trkpt lat="47.26805" lon="-2.32681">
        <ele>15</ele>
        <time>2007-05-21T07:21:40Z</time>
      </trkpt>
      <trkpt lat="47.26807" lon="-2.327">
        <ele>15</ele>
        <time>2007-05-21T07:21:45Z</time>
      </trkpt>
      <trkpt lat="47.26816" lon="-2.32718">
        <ele>15</ele>
        <time>2007-05-21T07:21:52Z</time>
      </trkpt>
      <trkpt lat="47.26823" lon="-2.32733">
        <ele>14</ele>
        <time>2007-05-21T07:21:57Z</time>
      </trkpt>
      <trkpt lat="47.26842" lon="-2.32776">
        <ele>13</ele>
        <time>2007-05-21T07:22:11Z</time>
      </trkpt>
      <trkpt lat="47.26852" lon="-2.32807">
        <ele>12</ele>
        <time>2007-05-21T07:22:20Z</time>
      </trkpt>
      <trkpt lat="47.26862" lon="-2.32838">
        <ele>11</ele>
        <time>2007-05-21T07:22:29Z</time>
      </trkpt>
      <trkpt lat="47.2687" lon="-2.32865">
        <ele>10</ele>
        <time>2007-05-21T07:22:37Z</time>
      </trkpt>
      <trkpt lat="47.26861" lon="-2.32882">
        <ele>9</ele>
        <time>2007-05-21T07:22:43Z</time>
      </trkpt>
      <trkpt lat="47.26851" lon="-2.32884">
        <ele>8</ele>
        <time>2007-05-21T07:22:47Z</time>
      </trkpt>
      <trkpt lat="47.26842" lon="-2.32888">
        <ele>7</ele>
        <time>2007-05-21T07:22:51Z</time>
      </trkpt>
      <trkpt lat="47.26828" lon="-2.32896">
        <ele>7</ele>
        <time>2007-05-21T07:22:57Z</time>
      </trkpt>
      <trkpt lat="47.26818" lon="-2.32903">
        <ele>6</ele>
        <time>2007-05-21T07:23:01Z</time>
      </trkpt>
      <trkpt lat="47.26812" lon="-2.3291">
        <ele>6</ele>
        <time>2007-05-21T07:23:05Z</time>
      </trkpt>
      <trkpt lat="47.26799" lon="-2.32919">
        <ele>6</ele>
        <time>2007-05-21T07:23:10Z</time>
      </trkpt>
      <trkpt lat="47.26763" lon="-2.3295">
        <ele>7</ele>
        <time>2007-05-21T07:23:27Z</time>
      </trkpt>
      <trkpt lat="47.26751" lon="-2.32965">
        <ele>7</ele>
        <time>2007-05-21T07:23:33Z</time>
      </trkpt>
      <trkpt lat="47.26733" lon="-2.32997">
        <ele>7</ele>
        <time>2007-05-21T07:23:45Z</time>
      </trkpt>
      <trkpt lat="47.26729" lon="-2.33011">
        <ele>7</ele>
        <time>2007-05-21T07:23:49Z</time>
      </trkpt>
      <trkpt lat="47.26731" lon="-2.33028">
        <ele>7</ele>
        <time>2007-05-21T07:23:54Z</time>
      </trkpt>
      <trkpt lat="47.26733" lon="-2.33041">
        <ele>6</ele>
        <time>2007-05-21T07:23:57Z</time>
      </trkpt>
      <trkpt lat="47.26729" lon="-2.3306">
        <ele>6</ele>
        <time>2007-05-21T07:24:03Z</time>
      </trkpt>
      <trkpt lat="47.26721" lon="-2.33071">
        <ele>6</ele>
        <time>2007-05-21T07:24:07Z</time>
      </trkpt>
      <trkpt lat="47.26708" lon="-2.33086">
        <ele>6</ele>
        <time>2007-05-21T07:24:13Z</time>
      </trkpt>
      <trkpt lat="47.26697" lon="-2.33095">
        <ele>5</ele>
        <time>2007-05-21T07:24:19Z</time>
      </trkpt>
      <trkpt lat="47.26683" lon="-2.3311">
        <ele>5</ele>
        <time>2007-05-21T07:24:25Z</time>
      </trkpt>
      <trkpt lat="47.26668" lon="-2.33125">
        <ele>4</ele>
        <time>2007-05-21T07:24:33Z</time>
      </trkpt>
      <trkpt lat="47.26657" lon="-2.33133">
        <ele>4</ele>
        <time>2007-05-21T07:24:37Z</time>
      </trkpt>
      <trkpt lat="47.26647" lon="-2.33141">
        <ele>3</ele>
        <time>2007-05-21T07:24:42Z</time>
      </trkpt>
      <trkpt lat="47.26623" lon="-2.33154">
        <ele>2</ele>
        <time>2007-05-21T07:24:52Z</time>
      </trkpt>
      <trkpt lat="47.26606" lon="-2.33149">
        <ele>2</ele>
        <time>2007-05-21T07:24:59Z</time>
      </trkpt>
      <trkpt lat="47.26598" lon="-2.33154">
        <ele>2</ele>
        <time>2007-05-21T07:25:03Z</time>
      </trkpt>
      <trkpt lat="47.26592" lon="-2.33165">
        <ele>2</ele>
        <time>2007-05-21T07:25:07Z</time>
      </trkpt>
      <trkpt lat="47.26587" lon="-2.33181">
        <ele>2</ele>
        <time>2007-05-21T07:25:11Z</time>
      </trkpt>
      <trkpt lat="47.2658" lon="-2.33194">
        <ele>2</ele>
        <time>2007-05-21T07:25:16Z</time>
      </trkpt>
      <trkpt lat="47.26563" lon="-2.33207">
        <ele>2</ele>
        <time>2007-05-21T07:25:24Z</time>
      </trkpt>
      <trkpt lat="47.26524" lon="-2.33231">
        <ele>1</ele>
        <time>2007-05-21T07:25:40Z</time>
      </trkpt>
      <trkpt lat="47.26502" lon="-2.33257">
        <ele>1</ele>
        <time>2007-05-21T07:25:52Z</time>
      </trkpt>
      <trkpt lat="47.26503" lon="-2.33283">
        <ele>1</ele>
        <time>2007-05-21T07:25:59Z</time>
      </trkpt>
      <trkpt lat="47.26513" lon="-2.3329">
        <ele>1</ele>
        <time>2007-05-21T07:26:03Z</time>
      </trkpt>
      <trkpt lat="47.26525" lon="-2.33306">
        <ele>1</ele>
        <time>2007-05-21T07:26:10Z</time>
      </trkpt>
      <trkpt lat="47.26523" lon="-2.3333">
        <ele>1</ele>
        <time>2007-05-21T07:26:16Z</time>
      </trkpt>
      <trkpt lat="47.26509" lon="-2.33344">
        <ele>1</ele>
        <time>2007-05-21T07:26:23Z</time>
      </trkpt>
      <trkpt lat="47.26488" lon="-2.33349">
        <ele>2</ele>
        <time>2007-05-21T07:26:32Z</time>
      </trkpt>
      <trkpt lat="47.26476" lon="-2.33358">
        <ele>2</ele>
        <time>2007-05-21T07:26:37Z</time>
      </trkpt>
      <trkpt lat="47.26421" lon="-2.33394">
        <ele>1</ele>
        <time>2007-05-21T07:27:01Z</time>
      </trkpt>
      <trkpt lat="47.26382" lon="-2.33411">
        <ele>1</ele>
        <time>2007-05-21T07:27:18Z</time>
      </trkpt>
      <trkpt lat="47.26362" lon="-2.33418">
        <ele>2</ele>
        <time>2007-05-21T07:27:26Z</time>
      </trkpt>
      <trkpt lat="47.26318" lon="-2.33428">
        <ele>3</ele>
        <time>2007-05-21T07:27:44Z</time>
      </trkpt>
      <trkpt lat="47.26256" lon="-2.33439">
        <ele>2</ele>
        <time>2007-05-21T07:28:08Z</time>
      </trkpt>
      <trkpt lat="47.26199" lon="-2.33453">
        <ele>2</ele>
        <time>2007-05-21T07:28:32Z</time>
      </trkpt>
      <trkpt lat="47.26179" lon="-2.33455">
        <ele>2</ele>
        <time>2007-05-21T07:28:40Z</time>
      </trkpt>
      <trkpt lat="47.26165" lon="-2.33455">
        <ele>3</ele>
        <time>2007-05-21T07:28:45Z</time>
      </trkpt>
      <trkpt lat="47.2615" lon="-2.33468">
        <ele>3</ele>
        <time>2007-05-21T07:28:52Z</time>
      </trkpt>
      <trkpt lat="47.26146" lon="-2.33497">
        <ele>3</ele>
        <time>2007-05-21T07:29:01Z</time>
      </trkpt>
      <trkpt lat="47.26139" lon="-2.33517">
        <ele>3</ele>
        <time>2007-05-21T07:29:07Z</time>
      </trkpt>
      <trkpt lat="47.26118" lon="-2.33559">
        <ele>3</ele>
        <time>2007-05-21T07:29:21Z</time>
      </trkpt>
      <trkpt lat="47.2609" lon="-2.33618">
        <ele>3</ele>
        <time>2007-05-21T07:29:40Z</time>
      </trkpt>
      <trkpt lat="47.26076" lon="-2.33663">
        <ele>3</ele>
        <time>2007-05-21T07:29:54Z</time>
      </trkpt>
      <trkpt lat="47.26076" lon="-2.33681">
        <ele>3</ele>
        <time>2007-05-21T07:29:59Z</time>
      </trkpt>
      <trkpt lat="47.26081" lon="-2.33708">
        <ele>3</ele>
        <time>2007-05-21T07:30:06Z</time>
      </trkpt>
      <trkpt lat="47.26094" lon="-2.33758">
        <ele>4</ele>
        <time>2007-05-21T07:30:21Z</time>
      </trkpt>
      <trkpt lat="47.26097" lon="-2.33803">
        <ele>4</ele>
        <time>2007-05-21T07:30:33Z</time>
      </trkpt>
      <trkpt lat="47.26076" lon="-2.33831">
        <ele>3</ele>
        <time>2007-05-21T07:30:44Z</time>
      </trkpt>
      <trkpt lat="47.26074" lon="-2.33863">
        <ele>3</ele>
        <time>2007-05-21T07:30:53Z</time>
      </trkpt>
      <trkpt lat="47.26028" lon="-2.33846">
        <ele>3</ele>
        <time>2007-05-21T07:31:12Z</time>
      </trkpt>
      <trkpt lat="47.26012" lon="-2.33888">
        <ele>4</ele>
        <time>2007-05-21T07:31:25Z</time>
      </trkpt>
    </trkseg>
  </trk>
</gpx>